New Lisbon, NJ (08064)

12:38 PM EDT on April 25, 2017 (GMT -0400)
CENTRAL NEW JERSEY | | Change Station

Elev 63 ft 39.95 °N, 74.63 °W | Updated 1 second ago

Rain
Rain
55.3 °F
Feels Like 55.3 °F
N
3.0
Wind Variable Wind from NNE
Gusts 4.0 mph

Today
High -- | Low -- °F
--% Chance of Precip.
Yesterday
High -- | Low -- °F
Precip. -- in
Pressure 29.95 in
Visibility 2.5 miles
Clouds Overcast 400 ft
Dew Point 55 °F
Humidity 100%
Rainfall 0.07 in
Snow Depth Not available.
6:06 AM 7:47 PM
Waning Crescent, 1% visible
SPECI KWRI 251630Z AUTO 05015KT 2 1/2SM -RA BR OVC004 12/11 A2995 RMK AO2 VIS 2 1/2V5 DZB00E03RAB03E14DZB14E21RAB21 SLP142 $
Pressure 29.95 in
Visibility 2.5 miles
Clouds Overcast 400 ft
Dew Point 55 °F
Humidity 100%
Rainfall 0.07 in
Snow Depth Not available.
6:06 AM 7:47 PM
Waning Crescent, 1% visible
SPECI KWRI 251630Z AUTO 05015KT 2 1/2SM -RA BR OVC004 12/11 A2995 RMK AO2 VIS 2 1/2V5 DZB00E03RAB03E14DZB14E21RAB21 SLP142 $

Get Severe Weather Alerts

Thanks for signing up!

Be on the lookout for a verification email in your inbox.

You'll start receiving the daily forecast at 8 AM.

×

10-Day Weather Forecast

Almanac

Astronomy

Apr. 25, 2017 Rise Set
Actual Time
Civil Twilight
Nautical Twilight
Astronomical Twilight
Moon
Length of Visible Light
Length of Day
Tomorrow will be .
, % of the Moon is Illuminated

Today's Extremes

State Highs State Lows

Community

WunderPhotos

WunderBlog® & News

Nearby

Air Quality

  Air Quality AQ Index Pollutant
Not available.

Snow Depth

Station Depth Elevation

Earthquake Activity

City Distance Mag. Time & Date
Minimum magnitude displayed is 2.5.

Coastal Water Temperatures

Place Temperature

Stations

Nearby Weather Stations

Station Location Temp. Windchill Dew Point Humidity Wind Precip. Elev Updated Type
                   

Watches & Warnings

There are currently no watches in effect.